Other Surface Observations
Issued by NWS Great Falls, MT

Home | Current Version | Previous Version | Text Only | Print | Product List | Glossary On
Versions: 1 2 3 4 5 6 7 8 9 10 11 12 13 14 15 16 17 18 19 20 21 22 23 24 25 26 27 28 29 30 31 32 33 34 35 36 37 38 39 40 41 42 43 44 45 46 47 48 49 50
135
SXUS55 KTFX 231029
OSOTFX
AREA AWOS OBSERVATIONS
NATIONAL WEATHER SERVICE GREAT FALLS MT
0329 AM MST MON JAN 23 2017

METAR KPWD 231030Z AUTO 32007KT 7SM M04/M07 A2977 RMK PLENTYWOOD
METAR KPO1 231030Z AUTO 00000KT 10SM M02/M04 A2978 RMK POPLAR
METAR K1S3 231030Z AUTO 08004KT 1/2SM M07/M07 A2971 RMK FORSYTH
METAR KS71 231030Z AUTO 03004KT 7SM M02/M03 A2975 RMK CHINOOK
METAR K79S 231030Z AUTO 5SM A2974 RMK FORT BENTON
METAR K38S 231030Z AUTO 08003KT 10SM M04/M08 A2962 RMK DEER LODGE
METAR K3U3 231030Z AUTO 20004KT 10SM M06/M10 A2960 RMK ANACONDA
METAR K6S5 231030Z AUTO 17011KT 10SM M01/M06 A2962 RMK HAMILTON
METAR K88M 231030Z AUTO 00000KT 5SM M05/M06 A2968 RMK EUREKA



USA.gov is the U.S. government's official web portal to all federal, state and local government web resources and services.